createdAt,value
2022-11-27T02:45:10.434Z,-0.71
2022-11-27T02:47:40.181Z,-0.73
2022-11-27T02:50:15.528Z,-0.82
2022-11-27T02:52:43.870Z,-0.85
2022-11-27T02:55:16.500Z,-0.95
2022-11-27T02:57:45.321Z,-0.95
2022-11-27T03:00:13.313Z,-1.04
2022-11-27T03:02:46.843Z,-0.92
2022-11-27T03:05:19.051Z,-0.95
2022-11-27T03:08:01.488Z,-1.01
2022-11-27T03:10:50.380Z,-1.00
2022-11-27T03:13:17.451Z,-1.14
2022-11-27T03:16:03.542Z,-1.15
2022-11-27T03:19:00.094Z,-1.24
2022-11-27T03:21:46.974Z,-1.25
2022-11-27T03:24:13.880Z,-1.27
2022-11-27T03:26:41.338Z,-1.23
2022-11-27T03:29:23.851Z,-1.25
2022-11-27T03:31:50.815Z,-1.28
2022-11-27T03:34:18.120Z,-1.22
2022-11-27T03:36:46.283Z,-1.27
2022-11-27T03:39:13.615Z,-1.24
2022-11-27T03:42:06.085Z,-1.25
2022-11-27T03:44:49.049Z,-1.42
2022-11-27T03:48:01.286Z,-1.32
2022-11-27T03:50:47.963Z,-1.41
2022-11-27T03:53:32.401Z,-1.55
2022-11-27T03:56:20.913Z,-1.54
2022-11-27T03:58:55.236Z,-1.56
2022-11-27T04:01:25.086Z,-1.52
2022-11-27T04:03:52.044Z,-1.49
2022-11-27T04:06:18.985Z,-1.41
2022-11-27T04:08:47.570Z,-1.41
2022-11-27T04:11:15.459Z,-1.49
2022-11-27T04:13:42.191Z,-1.53
2022-11-27T04:16:09.271Z,-1.59
2022-11-27T04:18:36.174Z,-1.64
2022-11-27T04:21:03.282Z,-1.67
2022-11-27T04:23:30.031Z,-1.77
2022-11-27T04:25:56.768Z,-1.78
2022-11-27T04:28:23.507Z,-1.77
2022-11-27T04:30:54.849Z,-1.83
2022-11-27T04:33:22.459Z,-1.83
2022-11-27T04:35:50.633Z,-1.85
2022-11-27T04:38:18.570Z,-1.86
2022-11-27T04:40:45.604Z,-1.81
2022-11-27T04:43:13.217Z,-1.78
2022-11-27T04:45:41.314Z,-1.80
2022-11-27T04:48:08.064Z,-1.84
2022-11-27T04:50:34.796Z,-1.83
2022-11-27T04:53:01.587Z,-1.91
2022-11-27T04:55:28.397Z,-1.87
2022-11-27T04:57:55.333Z,-1.91
2022-11-27T05:00:22.424Z,-2.04
2022-11-27T05:02:49.320Z,-1.98
2022-11-27T05:05:17.288Z,-2.03
2022-11-27T05:07:44.091Z,-2.08
2022-11-27T05:10:11.248Z,-2.11
2022-11-27T05:12:38.049Z,-2.29
2022-11-27T05:15:05.855Z,-2.29
2022-11-27T05:17:32.830Z,-2.36
2022-11-27T05:19:59.661Z,-2.34
2022-11-27T05:22:26.380Z,-2.46
2022-11-27T05:24:53.153Z,-2.46
2022-11-27T05:27:19.907Z,-2.49
2022-11-27T05:29:47.096Z,-2.50
2022-11-27T05:32:13.894Z,-2.47
2022-11-27T05:34:40.863Z,-2.52
2022-11-27T05:37:07.972Z,-2.42
2022-11-27T05:39:34.749Z,-2.49
2022-11-27T05:42:01.563Z,-2.41
2022-11-27T05:44:28.397Z,-2.45
2022-11-27T05:46:55.208Z,-2.49
2022-11-27T05:49:21.978Z,-2.49
2022-11-27T05:51:51.310Z,-2.57
2022-11-27T05:54:19.164Z,-2.58
2022-11-27T05:56:45.931Z,-2.64
2022-11-27T05:59:12.845Z,-2.61
2022-11-27T06:01:39.837Z,-2.58
2022-11-27T06:04:06.585Z,-2.56
2022-11-27T06:06:33.321Z,-2.54
2022-11-27T06:09:00.842Z,-2.56
2022-11-27T06:11:27.940Z,-2.56
2022-11-27T06:13:54.636Z,-2.56
2022-11-27T06:16:25.039Z,-2.65
2022-11-27T06:18:56.224Z,-2.60
2022-11-27T06:21:24.320Z,-2.63
2022-11-27T06:23:55.656Z,-2.60
2022-11-27T06:26:29.189Z,-2.57
2022-11-27T06:28:57.414Z,-2.58
2022-11-27T06:31:27.691Z,-2.60
2022-11-27T06:33:56.023Z,-2.70
2022-11-27T06:36:27.729Z,-2.75
2022-11-27T06:38:54.539Z,-2.78
2022-11-27T06:41:27.285Z,-2.75
2022-11-27T06:43:58.834Z,-2.71
2022-11-27T06:46:27.221Z,-2.69
2022-11-27T06:48:58.531Z,-2.62
2022-11-27T06:51:27.945Z,-2.55
2022-11-27T06:53:55.476Z,-2.48
2022-11-27T06:56:26.570Z,-2.41
2022-11-27T06:58:59.293Z,-2.43
2022-11-27T07:01:28.668Z,-2.32
2022-11-27T07:03:56.517Z,-2.29
2022-11-27T07:06:26.010Z,-2.27
2022-11-27T07:08:54.947Z,-2.21
2022-11-27T07:11:25.751Z,-2.23
2022-11-27T07:13:55.192Z,-2.18
2022-11-27T07:16:22.118Z,-2.23
2022-11-27T07:18:55.601Z,-2.14
2022-11-27T07:21:22.872Z,-2.16
2022-11-27T07:23:49.722Z,-2.17
2022-11-27T07:26:21.606Z,-2.23
2022-11-27T07:28:48.956Z,-2.10
2022-11-27T07:31:19.891Z,-2.06
2022-11-27T07:33:46.777Z,-2.04
2022-11-27T07:36:22.315Z,-1.95
2022-11-27T07:38:49.935Z,-1.92
2022-11-27T07:41:17.244Z,-1.94
2022-11-27T07:43:44.957Z,-1.82
2022-11-27T07:46:15.281Z,-1.71
2022-11-27T07:48:42.259Z,-1.72
2022-11-27T07:51:12.275Z,-1.58
2022-11-27T07:53:41.342Z,-1.54
2022-11-27T07:56:10.823Z,-1.51
2022-11-27T07:58:37.932Z,-1.49
2022-11-27T08:01:10.468Z,-1.44
2022-11-27T08:03:37.368Z,-1.29
2022-11-27T08:06:05.279Z,-1.24
2022-11-27T08:08:33.239Z,-1.20
2022-11-27T08:11:00.106Z,-1.09
2022-11-27T08:13:26.859Z,-1.00
2022-11-27T08:15:54.248Z,-0.88
2022-11-27T08:18:21.006Z,-0.92
2022-11-27T08:20:47.807Z,-0.87
2022-11-27T08:23:14.512Z,-0.72
2022-11-27T08:25:41.283Z,-0.61
2022-11-27T08:28:08.029Z,-0.52
2022-11-27T08:30:34.753Z,-0.41
2022-11-27T08:33:01.579Z,-0.42
2022-11-27T08:35:28.380Z,-0.29
2022-11-27T08:37:55.224Z,-0.16
2022-11-27T08:40:21.976Z,0.03
2022-11-27T08:42:48.693Z,0.17
2022-11-27T08:45:15.524Z,0.34
2022-11-27T08:47:43.556Z,0.50
2022-11-27T08:50:10.829Z,0.73
2022-11-27T08:52:37.695Z,0.80
2022-11-27T08:55:04.958Z,0.90
2022-11-27T08:57:31.704Z,1.25
2022-11-27T08:59:58.483Z,1.15
2022-11-27T09:02:25.200Z,1.24
2022-11-27T09:04:51.943Z,1.19
2022-11-27T09:07:18.739Z,1.31
2022-11-27T09:09:45.484Z,1.35
2022-11-27T09:12:12.618Z,1.35
2022-11-27T09:14:40.074Z,1.43
2022-11-27T09:17:07.246Z,1.46
2022-11-27T09:19:33.993Z,1.50
2022-11-27T09:22:00.812Z,1.60
2022-11-27T09:24:27.544Z,1.65
2022-11-27T09:26:54.450Z,1.66
2022-11-27T09:29:21.404Z,1.60
2022-11-27T09:31:48.205Z,1.57
2022-11-27T09:34:15.156Z,1.63
2022-11-27T09:36:41.883Z,1.87
2022-11-27T09:39:08.647Z,1.98
2022-11-27T09:41:51.404Z,2.04
2022-11-27T09:44:23.940Z,2.06
2022-11-27T09:46:52.462Z,2.24
2022-11-27T09:49:30.016Z,2.33
2022-11-27T09:52:05.869Z,2.46
2022-11-27T09:54:41.638Z,2.62
2022-11-27T09:57:16.185Z,2.69
2022-11-27T09:59:50.912Z,2.83
2022-11-27T10:02:25.361Z,2.90
2022-11-27T10:05:12.879Z,2.71
2022-11-27T10:08:14.867Z,2.93
2022-11-27T10:11:11.575Z,2.96
2022-11-27T10:14:25.246Z,2.91
2022-11-27T10:17:20.536Z,3.01
2022-11-27T10:20:32.340Z,2.93
2022-11-27T10:23:17.194Z,2.98
2022-11-27T10:26:01.637Z,2.80
2022-11-27T10:28:49.877Z,2.84
2022-11-27T10:31:37.729Z,2.82
2022-11-27T10:34:35.251Z,2.54
2022-11-27T10:37:42.594Z,2.25
2022-11-27T10:40:12.386Z,2.28
2022-11-27T10:43:05.152Z,2.32
2022-11-27T10:45:46.575Z,2.30
2022-11-27T10:48:14.342Z,2.30
2022-11-27T10:50:42.301Z,2.24
2022-11-27T10:53:16.289Z,2.26
2022-11-27T10:56:12.638Z,2.37
2022-11-27T10:58:57.522Z,2.30
2022-11-27T11:01:27.684Z,2.24
2022-11-27T11:04:31.635Z,2.27
2022-11-27T11:06:56.912Z,2.31
2022-11-27T11:09:31.916Z,2.47
2022-11-27T11:12:31.007Z,2.51
2022-11-27T11:15:00.646Z,2.46
2022-11-27T11:17:34.400Z,2.32
2022-11-27T11:20:01.327Z,2.36
2022-11-27T11:22:29.821Z,2.47
2022-11-27T11:24:57.024Z,2.44
2022-11-27T11:27:29.373Z,2.42
2022-11-27T11:30:04.011Z,2.46
2022-11-27T11:32:36.868Z,2.48
2022-11-27T11:35:10.947Z,2.54
2022-11-27T11:37:45.960Z,2.50
2022-11-27T11:40:16.729Z,2.51
2022-11-27T11:42:55.396Z,2.47
2022-11-27T11:45:22.961Z,2.38
2022-11-27T11:47:52.096Z,2.42
2022-11-27T11:50:48.289Z,2.44
2022-11-27T11:53:34.160Z,2.45
2022-11-27T11:56:34.304Z,2.32
2022-11-27T11:59:13.072Z,2.32
2022-11-27T12:02:01.487Z,2.33
2022-11-27T12:05:15.058Z,2.37
2022-11-27T12:08:09.201Z,2.45
2022-11-27T12:10:45.868Z,2.47
2022-11-27T12:13:45.256Z,2.55
2022-11-27T12:16:29.105Z,2.53
2022-11-27T12:19:53.027Z,2.58
2022-11-27T12:22:44.712Z,2.48
2022-11-27T12:25:40.808Z,2.52
2022-11-27T12:28:41.109Z,2.50
2022-11-27T12:31:44.319Z,2.46
2022-11-27T12:34:20.805Z,2.42
2022-11-27T12:37:36.268Z,2.42
2022-11-27T12:40:14.665Z,2.55
2022-11-27T12:43:02.895Z,2.65
2022-11-27T12:45:37.300Z,2.76
2022-11-27T12:48:20.679Z,2.70
2022-11-27T12:50:55.391Z,2.72
2022-11-27T12:53:32.015Z,2.74
2022-11-27T12:56:18.656Z,2.91
2022-11-27T12:58:51.989Z,2.86
2022-11-27T13:01:29.808Z,2.91
2022-11-27T13:04:16.871Z,2.94
2022-11-27T13:07:08.885Z,2.95
2022-11-27T13:09:50.149Z,3.00
2022-11-27T13:12:50.769Z,3.03
2022-11-27T13:15:25.324Z,3.10
2022-11-27T13:18:03.531Z,3.18
2022-11-27T13:20:38.761Z,3.14
2022-11-27T13:23:05.533Z,3.14
2022-11-27T13:25:40.923Z,3.19
2022-11-27T13:28:08.886Z,3.23
2022-11-27T13:30:37.752Z,3.17
2022-11-27T13:33:07.175Z,3.02
2022-11-27T13:35:43.588Z,2.96
2022-11-27T13:38:24.613Z,2.99
2022-11-27T13:40:56.035Z,2.97
2022-11-27T13:43:36.982Z,3.04
2022-11-27T13:46:12.487Z,2.89
2022-11-27T13:48:47.792Z,3.02
2022-11-27T13:51:27.574Z,2.96
2022-11-27T13:54:29.162Z,3.07
2022-11-27T13:56:56.111Z,3.01
2022-11-27T13:59:25.428Z,2.97
2022-11-27T14:02:05.327Z,2.99
2022-11-27T14:04:34.125Z,3.02
2022-11-27T14:07:11.412Z,3.06
2022-11-27T14:09:49.380Z,3.06
2022-11-27T14:12:22.850Z,3.09
2022-11-27T14:15:20.362Z,3.16
2022-11-27T14:17:52.643Z,3.04
2022-11-27T14:20:25.670Z,3.05
2022-11-27T14:23:14.341Z,3.08
2022-11-27T14:25:41.553Z,3.06
2022-11-27T14:28:26.466Z,3.09
2022-11-27T14:31:00.525Z,3.02
2022-11-27T14:33:31.379Z,2.89
2022-11-27T14:36:05.005Z,2.92
2022-11-27T14:38:35.029Z,2.91
2022-11-27T14:41:18.522Z,2.95
2022-11-27T14:43:45.252Z,2.99
2022-11-27T14:46:21.055Z,3.04
2022-11-27T14:48:56.574Z,3.02
2022-11-27T14:51:35.056Z,2.97
2022-11-27T14:54:07.349Z,2.98
2022-11-27T14:56:39.463Z,3.02
2022-11-27T14:59:09.681Z,3.03
2022-11-27T15:01:37.754Z,3.04
2022-11-27T15:06:45.620Z,3.03
2022-11-27T15:09:31.761Z,3.10
2022-11-27T15:12:04.720Z,2.98
2022-11-27T15:14:31.947Z,2.88
2022-11-27T15:16:59.043Z,2.92
2022-11-27T15:19:42.531Z,2.95
2022-11-27T15:22:18.104Z,2.98
2022-11-27T15:24:45.051Z,2.88
2022-11-27T15:27:14.312Z,2.94
2022-11-27T15:29:50.052Z,2.90
2022-11-27T15:32:22.984Z,2.90
2022-11-27T15:34:54.067Z,2.93
2022-11-27T15:37:34.623Z,2.87
2022-11-27T15:40:02.033Z,2.90
2022-11-27T15:42:29.173Z,2.93
2022-11-27T15:44:58.051Z,2.91
2022-11-27T15:47:31.105Z,2.91
2022-11-27T15:49:59.421Z,2.89
2022-11-27T15:52:27.606Z,2.93
2022-11-27T15:54:56.674Z,2.94
2022-11-27T15:57:24.464Z,2.94
2022-11-27T15:59:51.257Z,2.91
2022-11-27T16:02:18.536Z,2.97
2022-11-27T16:04:45.444Z,2.94
2022-11-27T16:07:12.226Z,2.91
2022-11-27T16:09:39.915Z,2.91
2022-11-27T16:12:07.058Z,2.91
2022-11-27T16:14:33.995Z,2.86
2022-11-27T16:17:01.512Z,2.83
2022-11-27T16:19:28.804Z,2.84
2022-11-27T16:21:56.867Z,2.82
2022-11-27T16:24:23.779Z,2.76
2022-11-27T16:26:50.524Z,2.76
2022-11-27T16:29:17.243Z,2.72
2022-11-27T16:31:44.061Z,2.74
2022-11-27T16:34:10.803Z,2.79
2022-11-27T16:36:40.964Z,2.71
2022-11-27T16:39:07.676Z,2.74
2022-11-27T16:41:34.539Z,2.76
2022-11-27T16:44:01.592Z,2.74
2022-11-27T16:46:30.952Z,2.69
2022-11-27T16:48:59.580Z,2.81
2022-11-27T16:51:31.316Z,2.78
2022-11-27T16:54:00.216Z,2.75
2022-11-27T16:56:29.877Z,2.82
2022-11-27T16:59:02.749Z,2.78
2022-11-27T17:01:36.813Z,2.74
2022-11-27T17:04:07.222Z,2.74
2022-11-27T17:06:34.162Z,2.73
2022-11-27T17:09:03.691Z,2.73
2022-11-27T17:11:33.956Z,2.74
2022-11-27T17:14:05.066Z,2.73
2022-11-27T17:16:32.382Z,2.71
2022-11-27T17:18:59.521Z,2.68
2022-11-27T17:21:30.225Z,2.75
2022-11-27T17:24:14.710Z,2.69
2022-11-27T17:26:43.577Z,2.69
2022-11-27T17:29:11.973Z,2.69
2022-11-27T17:31:39.894Z,2.69
2022-11-27T17:34:07.603Z,2.72
2022-11-27T17:36:37.404Z,2.74
2022-11-27T17:39:06.013Z,2.76
2022-11-27T17:41:33.384Z,2.68
2022-11-27T17:44:00.512Z,2.68
2022-11-27T17:46:29.058Z,2.69
2022-11-27T17:48:58.027Z,2.74
2022-11-27T17:51:25.464Z,2.69
2022-11-27T17:53:52.185Z,2.65
2022-11-27T17:56:22.463Z,2.69
2022-11-27T17:58:50.088Z,2.63
2022-11-27T18:01:23.378Z,2.73
2022-11-27T18:03:50.704Z,2.71
2022-11-27T18:06:19.625Z,2.74
2022-11-27T18:08:47.626Z,2.74
2022-11-27T18:11:22.083Z,2.62
2022-11-27T18:13:50.200Z,2.66
2022-11-27T18:16:20.282Z,2.65
2022-11-27T18:18:48.887Z,2.65
2022-11-27T18:21:19.780Z,2.67
2022-11-27T18:24:21.540Z,2.69
2022-11-27T18:27:07.871Z,2.59
2022-11-27T18:29:24.127Z,2.65
2022-11-27T18:31:51.958Z,2.65
2022-11-27T18:34:19.120Z,2.57
2022-11-27T18:36:46.178Z,2.62
2022-11-27T18:39:13.356Z,2.61
2022-11-27T18:41:40.954Z,2.61
2022-11-27T18:44:07.725Z,2.59
2022-11-27T18:46:34.514Z,2.59
2022-11-27T18:49:01.343Z,2.52
2022-11-27T18:51:28.156Z,2.52
2022-11-27T18:53:56.552Z,2.44
2022-11-27T18:56:30.633Z,2.55
2022-11-27T18:59:05.949Z,2.52
2022-11-27T19:01:41.204Z,2.57
2022-11-27T19:04:08.772Z,2.55
2022-11-27T19:06:37.523Z,2.55
2022-11-27T19:09:05.138Z,2.48
2022-11-27T19:11:32.850Z,2.50
2022-11-27T19:13:59.825Z,2.49
2022-11-27T19:16:34.493Z,2.45
2022-11-27T19:19:03.466Z,2.46
2022-11-27T19:21:32.972Z,2.48
2022-11-27T19:24:02.724Z,2.50
2022-11-27T19:26:34.275Z,2.53
2022-11-27T19:29:05.675Z,2.52
2022-11-27T19:31:37.690Z,2.53
2022-11-27T19:34:06.382Z,2.53
2022-11-27T19:36:35.108Z,2.52
2022-11-27T19:39:12.617Z,2.51
2022-11-27T19:41:39.389Z,2.50
2022-11-27T19:44:07.361Z,2.45
2022-11-27T19:46:36.736Z,2.42
2022-11-27T19:49:12.824Z,2.43
2022-11-27T19:51:39.925Z,2.42
2022-11-27T19:54:10.495Z,2.47
2022-11-27T19:56:40.081Z,2.45
2022-11-27T19:59:08.559Z,2.43
2022-11-27T20:01:37.644Z,2.45
2022-11-27T20:04:05.302Z,2.42
2022-11-27T20:06:32.715Z,2.42
2022-11-27T20:09:03.543Z,2.44
2022-11-27T20:11:35.041Z,2.37
2022-11-27T20:14:04.496Z,2.28
2022-11-27T20:16:33.047Z,2.27
2022-11-27T20:19:01.988Z,2.25
2022-11-27T20:21:28.707Z,2.19
2022-11-27T20:23:57.002Z,2.17
2022-11-27T20:26:26.324Z,2.28
2022-11-27T20:28:54.133Z,2.33
2022-11-27T20:31:28.162Z,2.36
2022-11-27T20:34:00.731Z,2.33
2022-11-27T20:36:29.922Z,2.33
2022-11-27T20:38:59.882Z,2.36
2022-11-27T20:41:27.713Z,2.36
2022-11-27T20:44:01.009Z,2.30
2022-11-27T20:46:27.952Z,2.23
2022-11-27T20:48:55.326Z,2.23
2022-11-27T20:51:28.468Z,2.29
2022-11-27T20:53:58.480Z,2.28
2022-11-27T20:56:25.800Z,2.25
2022-11-27T20:58:52.644Z,2.24
2022-11-27T21:01:29.855Z,2.22
2022-11-27T21:03:59.248Z,2.19
2022-11-27T21:06:30.537Z,2.15
2022-11-27T21:09:01.482Z,2.18
2022-11-27T21:11:31.061Z,2.22
2022-11-27T21:14:07.332Z,2.24
2022-11-27T21:16:37.747Z,2.30
2022-11-27T21:19:07.588Z,2.23
2022-11-27T21:21:34.988Z,2.23
2022-11-27T21:24:01.738Z,2.21
2022-11-27T21:26:29.279Z,2.21
2022-11-27T21:28:56.037Z,2.16
2022-11-27T21:31:26.525Z,2.22
2022-11-27T21:33:58.123Z,2.15
2022-11-27T21:36:28.239Z,2.21
2022-11-27T21:38:56.945Z,2.18
2022-11-27T21:41:24.368Z,2.17
2022-11-27T21:43:56.699Z,2.17
2022-11-27T21:46:25.472Z,2.16
2022-11-27T21:48:55.860Z,2.13
2022-11-27T21:51:23.164Z,2.10
2022-11-27T21:53:51.770Z,2.07
2022-11-27T21:56:21.605Z,2.15
2022-11-27T21:58:48.417Z,2.13
2022-11-27T22:01:18.604Z,2.12
2022-11-27T22:03:47.238Z,2.08
2022-11-27T22:06:16.496Z,2.16
2022-11-27T22:08:45.743Z,2.19
2022-11-27T22:11:17.092Z,2.13
2022-11-27T22:13:44.350Z,2.15
2022-11-27T22:16:15.682Z,2.10
2022-11-27T22:18:42.959Z,2.12
2022-11-27T22:21:12.472Z,2.10
2022-11-27T22:23:43.541Z,2.09
2022-11-27T22:26:14.636Z,2.09
2022-11-27T22:28:42.450Z,2.17
2022-11-27T22:31:10.799Z,2.13
2022-11-27T22:33:38.065Z,2.17
2022-11-27T22:36:33.900Z,2.19
2022-11-27T22:39:05.815Z,2.17
2022-11-27T22:41:36.568Z,2.13
2022-11-27T22:44:14.456Z,2.14
2022-11-27T22:46:42.580Z,2.13
2022-11-27T22:49:13.426Z,2.18
2022-11-27T22:51:40.604Z,2.14
2022-11-27T22:54:12.120Z,2.09
2022-11-27T22:56:39.073Z,2.14
2022-11-27T23:01:54.540Z,2.04
2022-11-27T23:04:21.400Z,2.13
2022-11-27T23:06:48.637Z,1.99
2022-11-27T23:09:17.866Z,1.99
2022-11-27T23:11:44.919Z,1.94
2022-11-27T23:14:11.881Z,1.94
2022-11-27T23:16:38.669Z,2.02
2022-11-27T23:19:05.542Z,2.03
2022-11-27T23:21:35.326Z,2.02
2022-11-27T23:24:02.188Z,2.02
2022-11-27T23:26:28.936Z,1.96
2022-11-27T23:28:56.662Z,2.02
2022-11-27T23:31:31.181Z,2.05
2022-11-27T23:34:01.820Z,2.09
2022-11-27T23:36:30.418Z,2.06
2022-11-27T23:39:00.853Z,2.11
2022-11-27T23:41:28.238Z,2.10
2022-11-27T23:43:55.860Z,2.10
2022-11-27T23:46:26.771Z,2.09
2022-11-27T23:48:55.663Z,2.06
2022-11-27T23:51:27.469Z,2.14
2022-11-27T23:53:54.691Z,2.12
2022-11-27T23:56:28.511Z,2.11
2022-11-27T23:58:56.456Z,2.13
